sensor_id;sensor_type;location;lat;lon;timestamp;P1;durP1;ratioP1;P2;durP2;ratioP2
34278;SDS011;20538;51.528;9.942;2023-04-10T00:02:12;44.95;;;23.13;;
34278;SDS011;20538;51.528;9.942;2023-04-10T00:04:37;51.00;;;24.17;;
34278;SDS011;20538;51.528;9.942;2023-04-10T00:07:03;44.38;;;22.10;;
34278;SDS011;20538;51.528;9.942;2023-04-10T00:09:29;48.65;;;23.85;;
34278;SDS011;20538;51.528;9.942;2023-04-10T00:11:54;43.65;;;22.48;;
34278;SDS011;20538;51.528;9.942;2023-04-10T00:14:21;48.92;;;24.70;;
34278;SDS011;20538;51.528;9.942;2023-04-10T00:16:47;42.28;;;23.15;;
34278;SDS011;20538;51.528;9.942;2023-04-10T00:19:13;45.63;;;22.95;;
34278;SDS011;20538;51.528;9.942;2023-04-10T00:21:39;44.25;;;23.23;;
34278;SDS011;20538;51.528;9.942;2023-04-10T00:24:05;44.70;;;22.95;;
34278;SDS011;20538;51.528;9.942;2023-04-10T00:26:31;45.13;;;23.30;;
34278;SDS011;20538;51.528;9.942;2023-04-10T00:28:56;46.95;;;22.25;;
34278;SDS011;20538;51.528;9.942;2023-04-10T00:31:22;43.80;;;22.58;;
34278;SDS011;20538;51.528;9.942;2023-04-10T00:33:48;48.78;;;23.52;;
34278;SDS011;20538;51.528;9.942;2023-04-10T00:36:13;43.03;;;21.85;;
34278;SDS011;20538;51.528;9.942;2023-04-10T00:38:39;46.90;;;23.23;;
34278;SDS011;20538;51.528;9.942;2023-04-10T00:41:05;44.08;;;21.88;;
34278;SDS011;20538;51.528;9.942;2023-04-10T00:43:31;42.53;;;21.65;;
34278;SDS011;20538;51.528;9.942;2023-04-10T00:45:57;44.83;;;22.15;;
34278;SDS011;20538;51.528;9.942;2023-04-10T00:48:23;43.38;;;23.45;;
34278;SDS011;20538;51.528;9.942;2023-04-10T00:50:49;48.70;;;22.98;;
34278;SDS011;20538;51.528;9.942;2023-04-10T00:53:15;49.33;;;23.52;;
34278;SDS011;20538;51.528;9.942;2023-04-10T00:55:41;46.45;;;24.92;;
34278;SDS011;20538;51.528;9.942;2023-04-10T00:58:07;48.13;;;24.15;;
34278;SDS011;20538;51.528;9.942;2023-04-10T01:00:38;50.90;;;23.05;;
34278;SDS011;20538;51.528;9.942;2023-04-10T01:03:05;47.53;;;24.23;;
34278;SDS011;20538;51.528;9.942;2023-04-10T01:05:42;53.00;;;25.10;;
34278;SDS011;20538;51.528;9.942;2023-04-10T01:08:34;45.80;;;23.42;;
34278;SDS011;20538;51.528;9.942;2023-04-10T01:11:12;52.17;;;24.55;;
34278;SDS011;20538;51.528;9.942;2023-04-10T01:13:49;49.97;;;24.38;;
34278;SDS011;20538;51.528;9.942;2023-04-10T01:16:25;50.58;;;25.55;;
34278;SDS011;20538;51.528;9.942;2023-04-10T01:20:09;51.05;;;25.42;;
34278;SDS011;20538;51.528;9.942;2023-04-10T01:22:24;54.35;;;24.88;;
34278;SDS011;20538;51.528;9.942;2023-04-10T01:25:08;48.30;;;26.10;;
34278;SDS011;20538;51.528;9.942;2023-04-10T01:30:40;56.05;;;25.15;;
34278;SDS011;20538;51.528;9.942;2023-04-10T01:33:09;53.83;;;25.00;;
34278;SDS011;20538;51.528;9.942;2023-04-10T01:35:39;54.55;;;27.23;;
34278;SDS011;20538;51.528;9.942;2023-04-10T01:38:07;55.67;;;26.67;;
34278;SDS011;20538;51.528;9.942;2023-04-10T01:40:34;61.15;;;27.60;;
34278;SDS011;20538;51.528;9.942;2023-04-10T01:43:04;54.22;;;26.35;;
34278;SDS011;20538;51.528;9.942;2023-04-10T01:45:32;56.55;;;26.70;;
34278;SDS011;20538;51.528;9.942;2023-04-10T01:47:57;54.10;;;27.05;;
34278;SDS011;20538;51.528;9.942;2023-04-10T01:50:24;55.13;;;27.05;;
34278;SDS011;20538;51.528;9.942;2023-04-10T01:52:52;50.13;;;26.30;;
34278;SDS011;20538;51.528;9.942;2023-04-10T01:55:18;54.78;;;26.88;;
34278;SDS011;20538;51.528;9.942;2023-04-10T01:57:45;58.97;;;27.40;;
34278;SDS011;20538;51.528;9.942;2023-04-10T02:00:13;54.70;;;25.38;;
34278;SDS011;20538;51.528;9.942;2023-04-10T02:02:40;56.92;;;27.55;;
34278;SDS011;20538;51.528;9.942;2023-04-10T02:05:07;50.45;;;25.63;;
34278;SDS011;20538;51.528;9.942;2023-04-10T02:10:34;58.38;;;25.85;;
34278;SDS011;20538;51.528;9.942;2023-04-10T02:13:07;56.95;;;27.55;;
34278;SDS011;20538;51.528;9.942;2023-04-10T02:15:41;55.92;;;27.48;;
34278;SDS011;20538;51.528;9.942;2023-04-10T02:18:10;56.15;;;27.35;;
34278;SDS011;20538;51.528;9.942;2023-04-10T02:20:39;57.47;;;27.73;;
34278;SDS011;20538;51.528;9.942;2023-04-10T02:23:06;59.13;;;27.52;;
34278;SDS011;20538;51.528;9.942;2023-04-10T02:25:33;56.80;;;26.52;;
34278;SDS011;20538;51.528;9.942;2023-04-10T02:28:05;55.80;;;26.52;;
34278;SDS011;20538;51.528;9.942;2023-04-10T02:30:32;55.17;;;27.85;;
34278;SDS011;20538;51.528;9.942;2023-04-10T02:32:58;60.78;;;27.60;;
34278;SDS011;20538;51.528;9.942;2023-04-10T02:35:25;60.75;;;27.55;;
34278;SDS011;20538;51.528;9.942;2023-04-10T02:37:52;59.55;;;27.63;;
34278;SDS011;20538;51.528;9.942;2023-04-10T02:40:18;58.55;;;26.83;;
34278;SDS011;20538;51.528;9.942;2023-04-10T02:42:44;58.97;;;27.10;;
34278;SDS011;20538;51.528;9.942;2023-04-10T02:45:10;58.47;;;27.38;;
34278;SDS011;20538;51.528;9.942;2023-04-10T02:47:35;52.83;;;27.25;;
34278;SDS011;20538;51.528;9.942;2023-04-10T02:50:01;59.00;;;26.42;;
34278;SDS011;20538;51.528;9.942;2023-04-10T02:52:26;63.53;;;28.38;;
34278;SDS011;20538;51.528;9.942;2023-04-10T02:54:52;68.40;;;29.00;;
34278;SDS011;20538;51.528;9.942;2023-04-10T02:57:18;63.13;;;26.92;;
34278;SDS011;20538;51.528;9.942;2023-04-10T02:59:43;58.95;;;27.52;;
34278;SDS011;20538;51.528;9.942;2023-04-10T03:02:09;61.08;;;27.13;;
34278;SDS011;20538;51.528;9.942;2023-04-10T03:04:35;61.10;;;29.65;;
34278;SDS011;20538;51.528;9.942;2023-04-10T03:07:01;57.47;;;27.45;;
34278;SDS011;20538;51.528;9.942;2023-04-10T03:09:27;62.05;;;28.48;;
34278;SDS011;20538;51.528;9.942;2023-04-10T03:11:52;54.30;;;27.52;;
34278;SDS011;20538;51.528;9.942;2023-04-10T03:14:18;61.35;;;29.17;;
34278;SDS011;20538;51.528;9.942;2023-04-10T03:16:44;59.08;;;29.17;;
34278;SDS011;20538;51.528;9.942;2023-04-10T03:19:11;55.75;;;28.75;;
34278;SDS011;20538;51.528;9.942;2023-04-10T03:21:37;60.30;;;28.63;;
34278;SDS011;20538;51.528;9.942;2023-04-10T03:24:03;55.35;;;27.08;;
34278;SDS011;20538;51.528;9.942;2023-04-10T03:26:31;58.22;;;28.17;;
34278;SDS011;20538;51.528;9.942;2023-04-10T03:28:57;57.10;;;28.75;;
34278;SDS011;20538;51.528;9.942;2023-04-10T03:31:23;59.95;;;28.00;;
34278;SDS011;20538;51.528;9.942;2023-04-10T03:33:48;60.70;;;28.38;;
34278;SDS011;20538;51.528;9.942;2023-04-10T03:36:14;58.90;;;27.08;;
34278;SDS011;20538;51.528;9.942;2023-04-10T03:38:40;58.90;;;28.90;;
34278;SDS011;20538;51.528;9.942;2023-04-10T03:41:05;59.40;;;26.85;;
34278;SDS011;20538;51.528;9.942;2023-04-10T03:43:31;57.65;;;28.00;;
34278;SDS011;20538;51.528;9.942;2023-04-10T03:45:57;52.85;;;27.13;;
34278;SDS011;20538;51.528;9.942;2023-04-10T03:48:23;62.78;;;28.20;;
34278;SDS011;20538;51.528;9.942;2023-04-10T03:50:52;58.45;;;27.00;;
34278;SDS011;20538;51.528;9.942;2023-04-10T03:53:19;69.03;;;28.35;;
34278;SDS011;20538;51.528;9.942;2023-04-10T03:55:45;57.80;;;27.63;;
34278;SDS011;20538;51.528;9.942;2023-04-10T03:58:10;53.72;;;26.83;;
34278;SDS011;20538;51.528;9.942;2023-04-10T04:00:37;58.22;;;27.75;;
34278;SDS011;20538;51.528;9.942;2023-04-10T04:03:03;55.10;;;26.50;;
34278;SDS011;20538;51.528;9.942;2023-04-10T04:05:29;60.92;;;26.60;;
34278;SDS011;20538;51.528;9.942;2023-04-10T04:07:55;57.78;;;26.85;;
34278;SDS011;20538;51.528;9.942;2023-04-10T04:10:21;57.78;;;28.95;;
34278;SDS011;20538;51.528;9.942;2023-04-10T04:12:48;55.30;;;25.63;;
34278;SDS011;20538;51.528;9.942;2023-04-10T04:15:13;56.53;;;27.08;;
34278;SDS011;20538;51.528;9.942;2023-04-10T04:17:39;50.10;;;24.25;;
34278;SDS011;20538;51.528;9.942;2023-04-10T04:20:05;51.45;;;24.63;;
34278;SDS011;20538;51.528;9.942;2023-04-10T04:22:32;52.15;;;25.38;;
34278;SDS011;20538;51.528;9.942;2023-04-10T04:24:57;54.38;;;25.88;;
34278;SDS011;20538;51.528;9.942;2023-04-10T04:27:23;55.25;;;25.05;;
34278;SDS011;20538;51.528;9.942;2023-04-10T04:29:49;51.13;;;23.50;;
34278;SDS011;20538;51.528;9.942;2023-04-10T04:32:14;56.60;;;25.77;;
34278;SDS011;20538;51.528;9.942;2023-04-10T04:34:40;54.40;;;24.85;;
34278;SDS011;20538;51.528;9.942;2023-04-10T04:37:06;59.90;;;25.50;;
34278;SDS011;20538;51.528;9.942;2023-04-10T04:39:31;51.50;;;24.65;;
34278;SDS011;20538;51.528;9.942;2023-04-10T04:41:57;53.00;;;24.23;;
34278;SDS011;20538;51.528;9.942;2023-04-10T04:44:23;50.55;;;23.48;;
34278;SDS011;20538;51.528;9.942;2023-04-10T04:46:48;51.75;;;24.25;;
34278;SDS011;20538;51.528;9.942;2023-04-10T04:49:14;53.40;;;25.25;;
34278;SDS011;20538;51.528;9.942;2023-04-10T04:51:40;52.10;;;24.05;;
34278;SDS011;20538;51.528;9.942;2023-04-10T04:54:05;48.63;;;23.38;;
34278;SDS011;20538;51.528;9.942;2023-04-10T04:56:31;48.72;;;23.52;;
34278;SDS011;20538;51.528;9.942;2023-04-10T04:58:57;51.22;;;24.65;;
34278;SDS011;20538;51.528;9.942;2023-04-10T05:01:23;50.20;;;24.58;;
34278;SDS011;20538;51.528;9.942;2023-04-10T05:03:49;56.53;;;25.63;;
34278;SDS011;20538;51.528;9.942;2023-04-10T05:06:14;44.80;;;23.17;;
34278;SDS011;20538;51.528;9.942;2023-04-10T05:08:41;47.17;;;22.92;;
34278;SDS011;20538;51.528;9.942;2023-04-10T05:11:07;53.35;;;24.23;;
34278;SDS011;20538;51.528;9.942;2023-04-10T05:13:33;50.42;;;24.88;;
34278;SDS011;20538;51.528;9.942;2023-04-10T05:15:58;47.78;;;24.20;;
34278;SDS011;20538;51.528;9.942;2023-04-10T05:18:24;51.28;;;23.27;;
34278;SDS011;20538;51.528;9.942;2023-04-10T05:20:50;51.95;;;22.77;;
34278;SDS011;20538;51.528;9.942;2023-04-10T05:23:16;45.58;;;23.30;;
34278;SDS011;20538;51.528;9.942;2023-04-10T05:25:41;45.85;;;22.92;;
34278;SDS011;20538;51.528;9.942;2023-04-10T05:28:07;52.65;;;25.13;;
34278;SDS011;20538;51.528;9.942;2023-04-10T05:30:33;53.83;;;24.17;;
34278;SDS011;20538;51.528;9.942;2023-04-10T05:32:58;53.42;;;25.45;;
34278;SDS011;20538;51.528;9.942;2023-04-10T05:35:24;58.25;;;25.35;;
34278;SDS011;20538;51.528;9.942;2023-04-10T05:37:50;51.75;;;24.50;;
34278;SDS011;20538;51.528;9.942;2023-04-10T05:40:15;63.47;;;26.08;;
34278;SDS011;20538;51.528;9.942;2023-04-10T05:42:41;60.90;;;25.48;;
34278;SDS011;20538;51.528;9.942;2023-04-10T05:45:07;57.13;;;26.13;;
34278;SDS011;20538;51.528;9.942;2023-04-10T05:47:33;58.85;;;25.98;;
34278;SDS011;20538;51.528;9.942;2023-04-10T05:49:58;60.25;;;26.98;;
34278;SDS011;20538;51.528;9.942;2023-04-10T05:52:24;60.63;;;26.85;;
34278;SDS011;20538;51.528;9.942;2023-04-10T05:54:50;54.42;;;27.98;;
34278;SDS011;20538;51.528;9.942;2023-04-10T05:57:16;63.42;;;28.55;;
34278;SDS011;20538;51.528;9.942;2023-04-10T05:59:42;63.28;;;28.67;;
34278;SDS011;20538;51.528;9.942;2023-04-10T06:02:07;61.17;;;27.42;;
34278;SDS011;20538;51.528;9.942;2023-04-10T06:04:33;62.38;;;28.58;;
34278;SDS011;20538;51.528;9.942;2023-04-10T06:06:59;65.18;;;30.50;;
34278;SDS011;20538;51.528;9.942;2023-04-10T06:09:25;60.83;;;29.13;;
34278;SDS011;20538;51.528;9.942;2023-04-10T06:11:51;64.25;;;28.83;;
34278;SDS011;20538;51.528;9.942;2023-04-10T06:14:18;64.95;;;29.92;;
34278;SDS011;20538;51.528;9.942;2023-04-10T06:16:44;67.65;;;30.77;;
34278;SDS011;20538;51.528;9.942;2023-04-10T06:19:10;73.85;;;30.77;;
34278;SDS011;20538;51.528;9.942;2023-04-10T06:21:36;69.97;;;31.38;;
34278;SDS011;20538;51.528;9.942;2023-04-10T06:24:02;72.43;;;31.52;;
34278;SDS011;20538;51.528;9.942;2023-04-10T06:26:27;69.22;;;31.42;;
34278;SDS011;20538;51.528;9.942;2023-04-10T06:28:53;62.97;;;29.60;;
34278;SDS011;20538;51.528;9.942;2023-04-10T06:31:19;69.85;;;30.40;;
34278;SDS011;20538;51.528;9.942;2023-04-10T06:33:47;63.85;;;30.27;;
34278;SDS011;20538;51.528;9.942;2023-04-10T06:36:14;67.00;;;28.50;;
34278;SDS011;20538;51.528;9.942;2023-04-10T06:38:40;63.17;;;29.38;;
34278;SDS011;20538;51.528;9.942;2023-04-10T06:41:06;67.85;;;30.40;;
34278;SDS011;20538;51.528;9.942;2023-04-10T06:43:33;62.88;;;29.98;;
34278;SDS011;20538;51.528;9.942;2023-04-10T06:45:59;55.88;;;26.45;;
34278;SDS011;20538;51.528;9.942;2023-04-10T06:48:25;56.33;;;28.20;;
34278;SDS011;20538;51.528;9.942;2023-04-10T06:50:51;58.33;;;26.60;;
34278;SDS011;20538;51.528;9.942;2023-04-10T06:53:16;62.60;;;28.55;;
34278;SDS011;20538;51.528;9.942;2023-04-10T06:55:42;54.28;;;26.50;;
34278;SDS011;20538;51.528;9.942;2023-04-10T06:58:08;52.90;;;26.35;;
34278;SDS011;20538;51.528;9.942;2023-04-10T07:00:33;52.95;;;26.67;;
34278;SDS011;20538;51.528;9.942;2023-04-10T07:02:59;53.90;;;25.42;;
34278;SDS011;20538;51.528;9.942;2023-04-10T07:05:24;47.78;;;24.35;;
34278;SDS011;20538;51.528;9.942;2023-04-10T07:07:50;46.95;;;24.90;;
34278;SDS011;20538;51.528;9.942;2023-04-10T07:10:34;47.78;;;25.48;;
34278;SDS011;20538;51.528;9.942;2023-04-10T07:13:00;43.35;;;23.10;;
34278;SDS011;20538;51.528;9.942;2023-04-10T07:15:26;46.50;;;24.30;;
34278;SDS011;20538;51.528;9.942;2023-04-10T07:17:52;42.65;;;22.60;;
34278;SDS011;20538;51.528;9.942;2023-04-10T07:20:17;44.72;;;24.17;;
34278;SDS011;20538;51.528;9.942;2023-04-10T07:22:43;44.50;;;23.58;;
34278;SDS011;20538;51.528;9.942;2023-04-10T07:25:09;44.53;;;22.33;;
34278;SDS011;20538;51.528;9.942;2023-04-10T07:27:35;34.58;;;20.45;;
34278;SDS011;20538;51.528;9.942;2023-04-10T07:30:00;32.70;;;18.58;;
34278;SDS011;20538;51.528;9.942;2023-04-10T07:32:26;35.92;;;18.38;;
34278;SDS011;20538;51.528;9.942;2023-04-10T07:34:52;30.55;;;18.25;;
34278;SDS011;20538;51.528;9.942;2023-04-10T07:37:17;26.95;;;17.20;;
34278;SDS011;20538;51.528;9.942;2023-04-10T07:39:43;29.88;;;16.70;;
34278;SDS011;20538;51.528;9.942;2023-04-10T07:42:12;26.55;;;15.70;;
34278;SDS011;20538;51.528;9.942;2023-04-10T07:44:38;27.08;;;15.52;;
34278;SDS011;20538;51.528;9.942;2023-04-10T07:47:03;28.30;;;16.05;;
34278;SDS011;20538;51.528;9.942;2023-04-10T07:49:29;26.65;;;15.40;;
34278;SDS011;20538;51.528;9.942;2023-04-10T07:51:55;26.63;;;15.75;;
34278;SDS011;20538;51.528;9.942;2023-04-10T07:54:20;26.17;;;15.80;;
34278;SDS011;20538;51.528;9.942;2023-04-10T07:56:46;28.48;;;17.13;;
34278;SDS011;20538;51.528;9.942;2023-04-10T07:59:11;25.58;;;16.15;;
34278;SDS011;20538;51.528;9.942;2023-04-10T08:01:37;27.73;;;16.52;;
34278;SDS011;20538;51.528;9.942;2023-04-10T08:04:03;26.60;;;15.10;;
34278;SDS011;20538;51.528;9.942;2023-04-10T08:06:29;22.20;;;14.30;;
34278;SDS011;20538;51.528;9.942;2023-04-10T08:08:56;22.90;;;14.07;;
34278;SDS011;20538;51.528;9.942;2023-04-10T08:13:47;22.13;;;14.35;;
34278;SDS011;20538;51.528;9.942;2023-04-10T08:16:13;21.92;;;13.75;;
34278;SDS011;20538;51.528;9.942;2023-04-10T08:18:39;24.60;;;15.18;;
34278;SDS011;20538;51.528;9.942;2023-04-10T08:21:04;22.73;;;14.25;;
34278;SDS011;20538;51.528;9.942;2023-04-10T08:23:30;23.00;;;14.80;;
34278;SDS011;20538;51.528;9.942;2023-04-10T08:25:56;21.45;;;13.40;;
34278;SDS011;20538;51.528;9.942;2023-04-10T08:28:22;23.00;;;13.45;;
34278;SDS011;20538;51.528;9.942;2023-04-10T08:30:48;22.52;;;12.55;;
34278;SDS011;20538;51.528;9.942;2023-04-10T08:33:14;17.90;;;11.88;;
34278;SDS011;20538;51.528;9.942;2023-04-10T08:35:39;20.60;;;11.75;;
34278;SDS011;20538;51.528;9.942;2023-04-10T08:38:05;19.25;;;11.55;;
34278;SDS011;20538;51.528;9.942;2023-04-10T08:40:30;18.33;;;11.35;;
34278;SDS011;20538;51.528;9.942;2023-04-10T08:43:00;19.58;;;11.65;;
34278;SDS011;20538;51.528;9.942;2023-04-10T08:45:26;17.90;;;11.25;;
34278;SDS011;20538;51.528;9.942;2023-04-10T08:47:51;17.83;;;11.88;;
34278;SDS011;20538;51.528;9.942;2023-04-10T08:50:21;19.30;;;11.02;;
34278;SDS011;20538;51.528;9.942;2023-04-10T08:52:46;18.70;;;11.57;;
34278;SDS011;20538;51.528;9.942;2023-04-10T08:55:18;17.95;;;11.35;;
34278;SDS011;20538;51.528;9.942;2023-04-10T08:57:45;21.00;;;13.00;;
34278;SDS011;20538;51.528;9.942;2023-04-10T09:00:12;18.67;;;12.23;;
34278;SDS011;20538;51.528;9.942;2023-04-10T09:02:38;20.75;;;11.98;;
34278;SDS011;20538;51.528;9.942;2023-04-10T09:05:05;18.15;;;11.88;;
34278;SDS011;20538;51.528;9.942;2023-04-10T09:07:35;19.55;;;12.18;;
34278;SDS011;20538;51.528;9.942;2023-04-10T09:10:02;18.85;;;12.73;;
34278;SDS011;20538;51.528;9.942;2023-04-10T09:12:28;17.83;;;12.23;;
34278;SDS011;20538;51.528;9.942;2023-04-10T09:15:07;22.13;;;12.85;;
34278;SDS011;20538;51.528;9.942;2023-04-10T09:17:33;22.15;;;13.48;;
34278;SDS011;20538;51.528;9.942;2023-04-10T09:19:59;22.83;;;12.65;;
34278;SDS011;20538;51.528;9.942;2023-04-10T09:22:29;19.23;;;12.40;;
34278;SDS011;20538;51.528;9.942;2023-04-10T09:24:59;17.75;;;12.00;;
34278;SDS011;20538;51.528;9.942;2023-04-10T09:27:27;21.63;;;13.15;;
34278;SDS011;20538;51.528;9.942;2023-04-10T09:30:02;17.20;;;11.85;;
34278;SDS011;20538;51.528;9.942;2023-04-10T09:32:36;18.75;;;12.52;;
34278;SDS011;20538;51.528;9.942;2023-04-10T09:35:03;23.25;;;14.00;;
34278;SDS011;20538;51.528;9.942;2023-04-10T09:37:33;22.20;;;12.57;;
34278;SDS011;20538;51.528;9.942;2023-04-10T09:39:59;20.02;;;12.55;;
34278;SDS011;20538;51.528;9.942;2023-04-10T09:42:33;17.25;;;12.13;;
34278;SDS011;20538;51.528;9.942;2023-04-10T09:45:01;19.08;;;12.32;;
34278;SDS011;20538;51.528;9.942;2023-04-10T09:47:27;16.92;;;12.10;;
34278;SDS011;20538;51.528;9.942;2023-04-10T09:54:54;17.70;;;12.30;;
34278;SDS011;20538;51.528;9.942;2023-04-10T09:57:21;18.70;;;12.40;;
34278;SDS011;20538;51.528;9.942;2023-04-10T09:59:51;20.25;;;11.82;;
34278;SDS011;20538;51.528;9.942;2023-04-10T10:02:18;18.17;;;12.55;;
34278;SDS011;20538;51.528;9.942;2023-04-10T10:04:46;18.83;;;12.65;;
34278;SDS011;20538;51.528;9.942;2023-04-10T10:07:13;19.73;;;12.45;;
34278;SDS011;20538;51.528;9.942;2023-04-10T10:09:43;14.63;;;10.52;;
34278;SDS011;20538;51.528;9.942;2023-04-10T10:12:11;18.85;;;11.48;;
34278;SDS011;20538;51.528;9.942;2023-04-10T10:14:43;18.13;;;11.70;;
34278;SDS011;20538;51.528;9.942;2023-04-10T10:17:13;15.98;;;10.82;;
34278;SDS011;20538;51.528;9.942;2023-04-10T10:19:52;17.63;;;10.95;;
34278;SDS011;20538;51.528;9.942;2023-04-10T10:22:24;14.90;;;10.32;;
34278;SDS011;20538;51.528;9.942;2023-04-10T10:24:52;16.88;;;10.48;;
34278;SDS011;20538;51.528;9.942;2023-04-10T10:27:20;14.23;;;9.48;;
34278;SDS011;20538;51.528;9.942;2023-04-10T10:29:48;15.27;;;9.98;;
34278;SDS011;20538;51.528;9.942;2023-04-10T10:32:17;13.65;;;9.27;;
34278;SDS011;20538;51.528;9.942;2023-04-10T10:34:44;15.07;;;9.68;;
34278;SDS011;20538;51.528;9.942;2023-04-10T10:37:11;13.60;;;9.18;;
34278;SDS011;20538;51.528;9.942;2023-04-10T10:39:45;13.68;;;8.63;;
34278;SDS011;20538;51.528;9.942;2023-04-10T10:42:39;15.15;;;8.68;;
34278;SDS011;20538;51.528;9.942;2023-04-10T10:45:17;15.25;;;9.75;;
34278;SDS011;20538;51.528;9.942;2023-04-10T10:47:48;12.43;;;8.50;;
34278;SDS011;20538;51.528;9.942;2023-04-10T10:50:17;14.02;;;9.75;;
34278;SDS011;20538;51.528;9.942;2023-04-10T11:00:16;13.88;;;9.32;;
34278;SDS011;20538;51.528;9.942;2023-04-10T11:02:42;13.23;;;8.15;;
34278;SDS011;20538;51.528;9.942;2023-04-10T11:05:08;11.40;;;8.10;;
34278;SDS011;20538;51.528;9.942;2023-04-10T11:13:27;11.05;;;8.13;;
34278;SDS011;20538;51.528;9.942;2023-04-10T11:15:53;13.98;;;8.40;;
34278;SDS011;20538;51.528;9.942;2023-04-10T11:23:38;10.65;;;6.90;;
34278;SDS011;20538;51.528;9.942;2023-04-10T11:29:01;10.30;;;6.72;;
34278;SDS011;20538;51.528;9.942;2023-04-10T11:31:27;9.90;;;6.05;;
34278;SDS011;20538;51.528;9.942;2023-04-10T11:36:32;11.95;;;7.03;;
34278;SDS011;20538;51.528;9.942;2023-04-10T11:39:03;8.85;;;6.10;;
34278;SDS011;20538;51.528;9.942;2023-04-10T11:41:32;6.68;;;4.80;;
34278;SDS011;20538;51.528;9.942;2023-04-10T11:44:04;7.43;;;5.00;;
34278;SDS011;20538;51.528;9.942;2023-04-10T11:46:34;6.43;;;4.75;;
34278;SDS011;20538;51.528;9.942;2023-04-10T11:49:06;8.00;;;5.30;;
34278;SDS011;20538;51.528;9.942;2023-04-10T11:51:34;9.15;;;6.47;;
34278;SDS011;20538;51.528;9.942;2023-04-10T11:54:07;8.35;;;5.28;;
34278;SDS011;20538;51.528;9.942;2023-04-10T11:56:44;6.72;;;4.95;;
34278;SDS011;20538;51.528;9.942;2023-04-10T11:59:24;10.73;;;5.72;;
34278;SDS011;20538;51.528;9.942;2023-04-10T12:01:50;7.60;;;5.68;;
34278;SDS011;20538;51.528;9.942;2023-04-10T12:04:21;7.05;;;5.22;;
34278;SDS011;20538;51.528;9.942;2023-04-10T12:09:18;10.32;;;6.05;;
34278;SDS011;20538;51.528;9.942;2023-04-10T12:12:03;6.75;;;5.18;;
34278;SDS011;20538;51.528;9.942;2023-04-10T12:14:37;7.97;;;5.07;;
34278;SDS011;20538;51.528;9.942;2023-04-10T12:17:07;5.82;;;4.72;;
34278;SDS011;20538;51.528;9.942;2023-04-10T12:19:35;8.90;;;5.30;;
34278;SDS011;20538;51.528;9.942;2023-04-10T12:22:02;7.95;;;5.88;;
34278;SDS011;20538;51.528;9.942;2023-04-10T12:27:20;6.07;;;4.50;;
34278;SDS011;20538;51.528;9.942;2023-04-10T12:29:47;7.35;;;5.38;;
34278;SDS011;20538;51.528;9.942;2023-04-10T12:32:14;9.15;;;5.40;;
34278;SDS011;20538;51.528;9.942;2023-04-10T12:34:40;8.60;;;5.13;;
34278;SDS011;20538;51.528;9.942;2023-04-10T12:37:06;5.30;;;4.22;;
34278;SDS011;20538;51.528;9.942;2023-04-10T12:39:34;7.18;;;4.22;;
34278;SDS011;20538;51.528;9.942;2023-04-10T12:42:19;6.53;;;4.60;;
34278;SDS011;20538;51.528;9.942;2023-04-10T12:44:50;7.18;;;4.60;;
34278;SDS011;20538;51.528;9.942;2023-04-10T12:47:24;5.93;;;4.18;;
34278;SDS011;20538;51.528;9.942;2023-04-10T12:50:10;10.55;;;5.13;;
34278;SDS011;20538;51.528;9.942;2023-04-10T12:55:12;7.13;;;4.30;;
34278;SDS011;20538;51.528;9.942;2023-04-10T12:57:39;8.27;;;4.38;;
34278;SDS011;20538;51.528;9.942;2023-04-10T13:00:06;6.95;;;4.00;;
34278;SDS011;20538;51.528;9.942;2023-04-10T13:02:36;5.60;;;4.30;;
34278;SDS011;20538;51.528;9.942;2023-04-10T13:05:03;6.18;;;4.50;;
34278;SDS011;20538;51.528;9.942;2023-04-10T13:07:29;9.68;;;4.68;;
34278;SDS011;20538;51.528;9.942;2023-04-10T13:09:55;5.95;;;4.22;;
34278;SDS011;20538;51.528;9.942;2023-04-10T13:12:20;6.60;;;4.43;;
34278;SDS011;20538;51.528;9.942;2023-04-10T13:14:47;6.20;;;4.38;;
34278;SDS011;20538;51.528;9.942;2023-04-10T13:17:12;7.22;;;4.45;;
34278;SDS011;20538;51.528;9.942;2023-04-10T13:19:38;6.57;;;4.65;;
34278;SDS011;20538;51.528;9.942;2023-04-10T13:22:03;9.68;;;5.55;;
34278;SDS011;20538;51.528;9.942;2023-04-10T13:24:29;8.30;;;4.95;;
34278;SDS011;20538;51.528;9.942;2023-04-10T13:26:55;9.00;;;4.80;;
34278;SDS011;20538;51.528;9.942;2023-04-10T13:29:22;6.18;;;4.18;;
34278;SDS011;20538;51.528;9.942;2023-04-10T13:31:48;5.78;;;4.45;;
34278;SDS011;20538;51.528;9.942;2023-04-10T13:34:14;6.55;;;4.65;;
34278;SDS011;20538;51.528;9.942;2023-04-10T13:36:40;7.13;;;4.93;;
34278;SDS011;20538;51.528;9.942;2023-04-10T13:39:06;7.40;;;5.28;;
34278;SDS011;20538;51.528;9.942;2023-04-10T13:41:31;6.65;;;4.55;;
34278;SDS011;20538;51.528;9.942;2023-04-10T13:43:57;9.65;;;4.93;;
34278;SDS011;20538;51.528;9.942;2023-04-10T13:46:22;5.53;;;4.47;;
34278;SDS011;20538;51.528;9.942;2023-04-10T13:48:49;7.63;;;4.70;;
34278;SDS011;20538;51.528;9.942;2023-04-10T13:51:17;6.38;;;4.50;;
34278;SDS011;20538;51.528;9.942;2023-04-10T13:53:46;8.02;;;5.32;;
34278;SDS011;20538;51.528;9.942;2023-04-10T13:56:12;6.63;;;4.57;;
34278;SDS011;20538;51.528;9.942;2023-04-10T13:58:38;7.15;;;4.63;;
34278;SDS011;20538;51.528;9.942;2023-04-10T14:01:04;6.90;;;4.60;;
34278;SDS011;20538;51.528;9.942;2023-04-10T14:03:30;6.72;;;4.03;;
34278;SDS011;20538;51.528;9.942;2023-04-10T14:05:56;6.53;;;4.63;;
34278;SDS011;20538;51.528;9.942;2023-04-10T14:08:22;6.45;;;5.00;;
34278;SDS011;20538;51.528;9.942;2023-04-10T14:10:48;7.72;;;5.40;;
34278;SDS011;20538;51.528;9.942;2023-04-10T14:13:15;5.97;;;4.40;;
34278;SDS011;20538;51.528;9.942;2023-04-10T14:15:44;7.40;;;4.80;;
34278;SDS011;20538;51.528;9.942;2023-04-10T14:18:10;6.80;;;4.35;;
34278;SDS011;20538;51.528;9.942;2023-04-10T14:20:36;5.47;;;4.30;;
34278;SDS011;20538;51.528;9.942;2023-04-10T14:23:02;7.30;;;4.35;;
34278;SDS011;20538;51.528;9.942;2023-04-10T14:25:29;4.82;;;3.90;;
34278;SDS011;20538;51.528;9.942;2023-04-10T14:27:54;6.22;;;4.50;;
34278;SDS011;20538;51.528;9.942;2023-04-10T14:30:20;6.13;;;4.32;;
34278;SDS011;20538;51.528;9.942;2023-04-10T14:32:46;6.15;;;4.00;;
34278;SDS011;20538;51.528;9.942;2023-04-10T14:35:11;6.15;;;4.63;;
34278;SDS011;20538;51.528;9.942;2023-04-10T14:37:37;6.70;;;4.70;;
34278;SDS011;20538;51.528;9.942;2023-04-10T14:40:03;5.75;;;4.03;;
34278;SDS011;20538;51.528;9.942;2023-04-10T14:42:29;5.38;;;4.72;;
34278;SDS011;20538;51.528;9.942;2023-04-10T14:44:55;7.05;;;4.35;;
34278;SDS011;20538;51.528;9.942;2023-04-10T14:47:22;5.57;;;4.10;;
34278;SDS011;20538;51.528;9.942;2023-04-10T14:49:48;6.10;;;4.05;;
34278;SDS011;20538;51.528;9.942;2023-04-10T14:52:14;4.82;;;3.92;;
34278;SDS011;20538;51.528;9.942;2023-04-10T14:54:40;5.57;;;4.15;;
34278;SDS011;20538;51.528;9.942;2023-04-10T14:57:05;4.50;;;3.55;;
34278;SDS011;20538;51.528;9.942;2023-04-10T14:59:31;4.78;;;3.97;;
34278;SDS011;20538;51.528;9.942;2023-04-10T15:01:57;5.95;;;4.00;;
34278;SDS011;20538;51.528;9.942;2023-04-10T15:04:25;5.15;;;3.88;;
34278;SDS011;20538;51.528;9.942;2023-04-10T15:06:51;4.78;;;4.00;;
34278;SDS011;20538;51.528;9.942;2023-04-10T15:09:17;5.97;;;4.07;;
34278;SDS011;20538;51.528;9.942;2023-04-10T15:11:42;5.57;;;4.05;;
34278;SDS011;20538;51.528;9.942;2023-04-10T15:14:08;4.72;;;3.72;;
34278;SDS011;20538;51.528;9.942;2023-04-10T15:16:35;7.07;;;4.43;;